Hauptseite
METAR-TAF:

METAR-TAF

Flughäfen :

Flughafen Mailand-Linate

Mailand, Italien

Breite: 45-26N, Länge: 009-17E, Höhe: 107 m

Beobachtung

Neuester Wetterbericht von vor 25 Minuten, um 04:20 UTC
Wind 1 kt aus unterschiedlichen Richtungen
Temperatur 0°C
Luftfeuchtigkeit 100%
Luftdruck 1028 hPa
Sichtweite: 2000 m
Nebelschwaden

METAR: LIML 170420Z VRB01KT 2000 R36/0350N BCFG NSC M00/M00 Q1028 NOSIG

Zeit: 05:45 (04:45 UTC)

Prognose

Neuester Wetterbericht von vor 5 Stunden und 45 Minuten, um 23:00 UTC
Gültige Prognose vom 17 um 00 UTC bis 17 um 24 UTC
Wind 5 kt aus unterschiedlichen Richtungen
Sichtweite: 4000 m
feuchter Dunst
Zeitweise
vom 17 um 02 UTC bis 17 um 08 UTC
Sichtweite: 2000 m
Nebelschwaden
Übergehend zu
vom 17 um 08 UTC bis 17 um 10 UTC
Sichtweite: 7000 m

TAF: LIML 162300Z 1700/1724 VRB05KT 4000 BR NSC TEMPO 1702/1708 2000 BCFG BECMG 1708/1710 7000

Wetterbeobachtungen und Prognosen von mehr als 4000 Flughäfen (METAR und TAF Bericht).

Die verfügbaren Stationen werden durch gelbe und rote Markierungen auf der Karte dargestellt.

Führen Sie die Maus auf sie, um den Namen der Station zu sehen.

Darauf klicken, um die Beobachtung von Wetterbeobachtungen und Prognosen zu sehen.

Um die Karte zu ändern : klicken Sie auf den grünen Tasten mit einem schwarzen Kreuz Zum Vergrößern, auf den grünen Button mit einem Gedankenstrich zu verkleinern, oder auf die grünen Pfeile für benachbarte Karten.


METAR-TAF: